sensor_id;sensor_type;location;lat;lon;timestamp;temperature;humidity
68098;DHT22;54886;47.036;15.466;2024-03-08T00:02:15;3.93;79.20
68098;DHT22;54886;47.036;15.466;2024-03-08T00:04:40;3.83;79.55
68098;DHT22;54886;47.036;15.466;2024-03-08T00:07:05;3.83;79.50
68098;DHT22;54886;47.036;15.466;2024-03-08T00:09:32;3.83;79.62
68098;DHT22;54886;47.036;15.466;2024-03-08T00:11:57;3.82;79.55
68098;DHT22;54886;47.036;15.466;2024-03-08T00:14:23;3.74;79.70
68098;DHT22;54886;47.036;15.466;2024-03-08T00:16:48;3.62;80.00
68098;DHT22;54886;47.036;15.466;2024-03-08T00:19:14;3.59;80.19
68098;DHT22;54886;47.036;15.466;2024-03-08T00:21:39;3.65;80.07
68098;DHT22;54886;47.036;15.466;2024-03-08T00:24:05;3.72;79.79
68098;DHT22;54886;47.036;15.466;2024-03-08T00:26:30;3.75;79.44
68098;DHT22;54886;47.036;15.466;2024-03-08T00:28:55;3.76;79.31
68098;DHT22;54886;47.036;15.466;2024-03-08T00:31:21;3.64;79.95
68098;DHT22;54886;47.036;15.466;2024-03-08T00:33:47;3.64;79.89
68098;DHT22;54886;47.036;15.466;2024-03-08T00:36:12;3.69;79.67
68098;DHT22;54886;47.036;15.466;2024-03-08T00:38:37;3.62;80.28
68098;DHT22;54886;47.036;15.466;2024-03-08T00:41:03;3.55;80.36
68098;DHT22;54886;47.036;15.466;2024-03-08T00:43:28;3.56;80.79
68098;DHT22;54886;47.036;15.466;2024-03-08T00:45:55;3.55;80.18
68098;DHT22;54886;47.036;15.466;2024-03-08T00:48:21;3.56;79.60
68098;DHT22;54886;47.036;15.466;2024-03-08T00:50:46;3.64;79.76
68098;DHT22;54886;47.036;15.466;2024-03-08T00:53:12;3.59;80.12
68098;DHT22;54886;47.036;15.466;2024-03-08T00:55:38;3.64;79.78
68098;DHT22;54886;47.036;15.466;2024-03-08T00:58:04;3.61;80.23
68098;DHT22;54886;47.036;15.466;2024-03-08T01:00:29;3.51;80.97
68098;DHT22;54886;47.036;15.466;2024-03-08T01:02:55;3.50;81.21
68098;DHT22;54886;47.036;15.466;2024-03-08T01:05:21;3.51;80.79
68098;DHT22;54886;47.036;15.466;2024-03-08T01:07:46;3.47;80.73
68098;DHT22;54886;47.036;15.466;2024-03-08T01:10:11;3.56;79.82
68098;DHT22;54886;47.036;15.466;2024-03-08T01:12:38;3.58;80.03
68098;DHT22;54886;47.036;15.466;2024-03-08T01:15:03;3.64;79.54
68098;DHT22;54886;47.036;15.466;2024-03-08T01:17:29;3.66;79.08
68098;DHT22;54886;47.036;15.466;2024-03-08T01:19:54;3.65;79.04
68098;DHT22;54886;47.036;15.466;2024-03-08T01:22:20;3.71;78.89
68098;DHT22;54886;47.036;15.466;2024-03-08T01:24:45;3.65;79.10
68098;DHT22;54886;47.036;15.466;2024-03-08T01:27:10;3.62;79.22
68098;DHT22;54886;47.036;15.466;2024-03-08T01:29:37;3.62;78.96
68098;DHT22;54886;47.036;15.466;2024-03-08T01:32:03;3.52;79.08
68098;DHT22;54886;47.036;15.466;2024-03-08T01:34:28;3.50;79.19
68098;DHT22;54886;47.036;15.466;2024-03-08T01:36:54;3.45;78.96
68098;DHT22;54886;47.036;15.466;2024-03-08T01:39:22;3.45;78.82
68098;DHT22;54886;47.036;15.466;2024-03-08T01:41:48;3.47;78.67
68098;DHT22;54886;47.036;15.466;2024-03-08T01:44:13;3.44;78.89
68098;DHT22;54886;47.036;15.466;2024-03-08T01:46:44;3.38;78.87
68098;DHT22;54886;47.036;15.466;2024-03-08T01:49:10;3.26;79.52
68098;DHT22;54886;47.036;15.466;2024-03-08T01:51:36;3.30;78.84
68098;DHT22;54886;47.036;15.466;2024-03-08T01:54:03;3.26;79.15
68098;DHT22;54886;47.036;15.466;2024-03-08T01:56:29;3.20;80.05
68098;DHT22;54886;47.036;15.466;2024-03-08T01:58:55;3.16;80.39
68098;DHT22;54886;47.036;15.466;2024-03-08T02:01:20;3.24;79.75
68098;DHT22;54886;47.036;15.466;2024-03-08T02:03:46;3.21;80.15
68098;DHT22;54886;47.036;15.466;2024-03-08T02:06:12;3.23;80.10
68098;DHT22;54886;47.036;15.466;2024-03-08T02:08:39;3.20;80.20
68098;DHT22;54886;47.036;15.466;2024-03-08T02:11:06;3.13;80.60
68098;DHT22;54886;47.036;15.466;2024-03-08T02:13:32;3.14;80.32
68098;DHT22;54886;47.036;15.466;2024-03-08T02:16:00;3.10;81.01
68098;DHT22;54886;47.036;15.466;2024-03-08T02:18:25;3.07;81.15
68098;DHT22;54886;47.036;15.466;2024-03-08T02:20:52;3.06;80.91
68098;DHT22;54886;47.036;15.466;2024-03-08T02:23:21;3.04;80.85
68098;DHT22;54886;47.036;15.466;2024-03-08T02:25:47;3.06;80.73
68098;DHT22;54886;47.036;15.466;2024-03-08T02:28:13;3.04;81.20
68098;DHT22;54886;47.036;15.466;2024-03-08T02:30:39;3.10;80.83
68098;DHT22;54886;47.036;15.466;2024-03-08T02:33:05;3.11;80.88
68098;DHT22;54886;47.036;15.466;2024-03-08T02:35:32;3.16;80.62
68098;DHT22;54886;47.036;15.466;2024-03-08T02:37:58;3.16;80.42
68098;DHT22;54886;47.036;15.466;2024-03-08T02:40:23;3.19;80.48
68098;DHT22;54886;47.036;15.466;2024-03-08T02:42:49;3.20;80.60
68098;DHT22;54886;47.036;15.466;2024-03-08T02:45:14;3.16;81.46
68098;DHT22;54886;47.036;15.466;2024-03-08T02:47:39;3.20;81.04
68098;DHT22;54886;47.036;15.466;2024-03-08T02:50:06;3.14;82.10
68098;DHT22;54886;47.036;15.466;2024-03-08T02:52:33;3.17;81.67
68098;DHT22;54886;47.036;15.466;2024-03-08T02:54:59;3.20;81.39
68098;DHT22;54886;47.036;15.466;2024-03-08T02:57:24;3.26;80.78
68098;DHT22;54886;47.036;15.466;2024-03-08T02:59:50;3.28;80.86
68098;DHT22;54886;47.036;15.466;2024-03-08T03:02:15;3.27;80.86
68098;DHT22;54886;47.036;15.466;2024-03-08T03:04:41;3.28;81.56
68098;DHT22;54886;47.036;15.466;2024-03-08T03:07:08;3.24;82.62
68098;DHT22;54886;47.036;15.466;2024-03-08T03:09:33;3.20;82.35
68098;DHT22;54886;47.036;15.466;2024-03-08T03:11:59;3.23;82.45
68098;DHT22;54886;47.036;15.466;2024-03-08T03:14:24;3.21;82.58
68098;DHT22;54886;47.036;15.466;2024-03-08T03:16:52;3.23;82.46
68098;DHT22;54886;47.036;15.466;2024-03-08T03:19:17;3.19;83.38
68098;DHT22;54886;47.036;15.466;2024-03-08T03:21:43;3.17;83.28
68098;DHT22;54886;47.036;15.466;2024-03-08T03:24:08;3.21;83.12
68098;DHT22;54886;47.036;15.466;2024-03-08T03:26:36;3.21;82.94
68098;DHT22;54886;47.036;15.466;2024-03-08T03:29:05;3.17;83.32
68098;DHT22;54886;47.036;15.466;2024-03-08T03:31:31;3.24;82.85
68098;DHT22;54886;47.036;15.466;2024-03-08T03:33:56;3.23;83.34
68098;DHT22;54886;47.036;15.466;2024-03-08T03:36:27;3.23;83.31
68098;DHT22;54886;47.036;15.466;2024-03-08T03:38:53;3.21;83.65
68098;DHT22;54886;47.036;15.466;2024-03-08T03:41:30;3.23;83.05
68098;DHT22;54886;47.036;15.466;2024-03-08T03:43:55;3.23;83.66
68098;DHT22;54886;47.036;15.466;2024-03-08T03:46:20;3.20;83.72
68098;DHT22;54886;47.036;15.466;2024-03-08T03:48:46;3.19;83.74
68098;DHT22;54886;47.036;15.466;2024-03-08T03:51:11;3.23;83.30
68098;DHT22;54886;47.036;15.466;2024-03-08T03:53:37;3.23;82.82
68098;DHT22;54886;47.036;15.466;2024-03-08T03:56:03;3.20;83.49
68098;DHT22;54886;47.036;15.466;2024-03-08T03:58:32;3.23;83.58
68098;DHT22;54886;47.036;15.466;2024-03-08T04:00:58;3.27;82.72
68098;DHT22;54886;47.036;15.466;2024-03-08T04:03:23;3.28;81.77
68098;DHT22;54886;47.036;15.466;2024-03-08T04:05:48;3.31;81.66
68098;DHT22;54886;47.036;15.466;2024-03-08T04:08:14;3.35;81.77
68098;DHT22;54886;47.036;15.466;2024-03-08T04:10:40;3.37;82.16
68098;DHT22;54886;47.036;15.466;2024-03-08T04:13:07;3.34;81.94
68098;DHT22;54886;47.036;15.466;2024-03-08T04:15:32;3.31;82.89
68098;DHT22;54886;47.036;15.466;2024-03-08T04:17:58;3.30;83.54
68098;DHT22;54886;47.036;15.466;2024-03-08T04:20:25;3.27;83.93
68098;DHT22;54886;47.036;15.466;2024-03-08T04:22:51;3.23;83.96
68098;DHT22;54886;47.036;15.466;2024-03-08T04:25:16;3.28;83.79
68098;DHT22;54886;47.036;15.466;2024-03-08T04:27:42;3.26;84.29
68098;DHT22;54886;47.036;15.466;2024-03-08T04:30:08;3.27;83.61
68098;DHT22;54886;47.036;15.466;2024-03-08T04:32:34;3.26;83.79
68098;DHT22;54886;47.036;15.466;2024-03-08T04:35:00;3.27;83.74
68098;DHT22;54886;47.036;15.466;2024-03-08T04:37:28;3.30;83.34
68098;DHT22;54886;47.036;15.466;2024-03-08T04:39:57;3.24;84.23
68098;DHT22;54886;47.036;15.466;2024-03-08T04:42:22;3.26;84.47
68098;DHT22;54886;47.036;15.466;2024-03-08T04:44:48;3.24;84.39
68098;DHT22;54886;47.036;15.466;2024-03-08T04:47:13;3.28;84.14
68098;DHT22;54886;47.036;15.466;2024-03-08T04:49:39;3.26;84.11
68098;DHT22;54886;47.036;15.466;2024-03-08T04:52:05;3.24;84.14
68098;DHT22;54886;47.036;15.466;2024-03-08T04:54:32;3.27;83.68
68098;DHT22;54886;47.036;15.466;2024-03-08T04:56:58;3.30;83.50
68098;DHT22;54886;47.036;15.466;2024-03-08T04:59:25;3.30;83.68
68098;DHT22;54886;47.036;15.466;2024-03-08T05:01:51;3.30;84.00
68098;DHT22;54886;47.036;15.466;2024-03-08T05:04:16;3.32;82.75
68098;DHT22;54886;47.036;15.466;2024-03-08T05:06:41;3.34;83.12
68098;DHT22;54886;47.036;15.466;2024-03-08T05:09:07;3.37;83.27
68098;DHT22;54886;47.036;15.466;2024-03-08T05:11:42;3.32;83.78
68098;DHT22;54886;47.036;15.466;2024-03-08T05:14:09;3.31;84.07
68098;DHT22;54886;47.036;15.466;2024-03-08T05:16:34;3.30;83.58
68098;DHT22;54886;47.036;15.466;2024-03-08T05:19:00;3.32;83.13
68098;DHT22;54886;47.036;15.466;2024-03-08T05:21:25;3.32;83.13
68098;DHT22;54886;47.036;15.466;2024-03-08T05:23:51;3.31;83.76
68098;DHT22;54886;47.036;15.466;2024-03-08T05:26:16;3.32;83.13
68098;DHT22;54886;47.036;15.466;2024-03-08T05:28:42;3.35;83.32
68098;DHT22;54886;47.036;15.466;2024-03-08T05:31:08;3.34;83.81
68098;DHT22;54886;47.036;15.466;2024-03-08T05:33:33;3.34;83.09
68098;DHT22;54886;47.036;15.466;2024-03-08T05:36:02;3.35;82.73
68098;DHT22;54886;47.036;15.466;2024-03-08T05:38:28;3.34;82.67
68098;DHT22;54886;47.036;15.466;2024-03-08T05:40:54;3.37;82.91
68098;DHT22;54886;47.036;15.466;2024-03-08T05:43:20;3.35;83.00
68098;DHT22;54886;47.036;15.466;2024-03-08T05:45:46;3.37;82.96
68098;DHT22;54886;47.036;15.466;2024-03-08T05:48:11;3.39;83.38
68098;DHT22;54886;47.036;15.466;2024-03-08T05:50:38;3.35;82.58
68098;DHT22;54886;47.036;15.466;2024-03-08T05:53:04;3.37;82.17
68098;DHT22;54886;47.036;15.466;2024-03-08T05:55:32;3.39;81.81
68098;DHT22;54886;47.036;15.466;2024-03-08T05:58:00;3.39;81.91
68098;DHT22;54886;47.036;15.466;2024-03-08T06:00:26;3.37;82.32
68098;DHT22;54886;47.036;15.466;2024-03-08T06:02:52;3.38;82.00
68098;DHT22;54886;47.036;15.466;2024-03-08T06:05:17;3.38;81.65
68098;DHT22;54886;47.036;15.466;2024-03-08T06:07:43;3.35;82.54
68098;DHT22;54886;47.036;15.466;2024-03-08T06:10:09;3.34;82.01
68098;DHT22;54886;47.036;15.466;2024-03-08T06:12:38;3.38;81.39
68098;DHT22;54886;47.036;15.466;2024-03-08T06:15:07;3.38;82.09
68098;DHT22;54886;47.036;15.466;2024-03-08T06:17:34;3.37;82.12
68098;DHT22;54886;47.036;15.466;2024-03-08T06:20:00;3.41;82.19
68098;DHT22;54886;47.036;15.466;2024-03-08T06:22:25;3.41;82.12
68098;DHT22;54886;47.036;15.466;2024-03-08T06:24:51;3.42;82.12
68098;DHT22;54886;47.036;15.466;2024-03-08T06:27:16;3.42;81.82
68098;DHT22;54886;47.036;15.466;2024-03-08T06:29:42;3.44;82.15
68098;DHT22;54886;47.036;15.466;2024-03-08T06:32:08;3.44;82.02
68098;DHT22;54886;47.036;15.466;2024-03-08T06:34:33;3.44;82.83
68098;DHT22;54886;47.036;15.466;2024-03-08T06:37:01;3.47;83.30
68098;DHT22;54886;47.036;15.466;2024-03-08T06:39:27;3.45;83.49
68098;DHT22;54886;47.036;15.466;2024-03-08T06:41:56;3.52;82.93
68098;DHT22;54886;47.036;15.466;2024-03-08T06:44:22;3.52;83.57
68098;DHT22;54886;47.036;15.466;2024-03-08T06:46:47;3.52;83.38
68098;DHT22;54886;47.036;15.466;2024-03-08T06:49:13;3.50;83.80
68098;DHT22;54886;47.036;15.466;2024-03-08T06:51:39;3.59;83.43
68098;DHT22;54886;47.036;15.466;2024-03-08T06:54:06;3.62;83.35
68098;DHT22;54886;47.036;15.466;2024-03-08T06:56:36;3.66;83.29
68098;DHT22;54886;47.036;15.466;2024-03-08T06:59:03;3.66;83.95
68098;DHT22;54886;47.036;15.466;2024-03-08T07:01:29;3.72;83.04
68098;DHT22;54886;47.036;15.466;2024-03-08T07:03:59;3.69;83.39
68098;DHT22;54886;47.036;15.466;2024-03-08T07:06:25;3.74;82.90
68098;DHT22;54886;47.036;15.466;2024-03-08T07:08:51;3.74;83.20
68098;DHT22;54886;47.036;15.466;2024-03-08T07:11:16;3.74;83.31
68098;DHT22;54886;47.036;15.466;2024-03-08T07:13:45;3.74;83.86
68098;DHT22;54886;47.036;15.466;2024-03-08T07:16:10;3.79;83.17
68098;DHT22;54886;47.036;15.466;2024-03-08T07:18:37;3.76;83.52
68098;DHT22;54886;47.036;15.466;2024-03-08T07:21:05;3.81;83.74
68098;DHT22;54886;47.036;15.466;2024-03-08T07:23:30;3.79;82.93
68098;DHT22;54886;47.036;15.466;2024-03-08T07:26:17;3.75;83.61
68098;DHT22;54886;47.036;15.466;2024-03-08T07:28:43;3.75;83.67
68098;DHT22;54886;47.036;15.466;2024-03-08T07:31:09;3.76;83.74
68098;DHT22;54886;47.036;15.466;2024-03-08T07:33:37;3.74;84.18
68098;DHT22;54886;47.036;15.466;2024-03-08T07:36:03;3.69;84.24
68098;DHT22;54886;47.036;15.466;2024-03-08T07:38:29;3.76;83.72
68098;DHT22;54886;47.036;15.466;2024-03-08T07:40:54;3.71;83.99
68098;DHT22;54886;47.036;15.466;2024-03-08T07:43:22;3.66;84.59
68098;DHT22;54886;47.036;15.466;2024-03-08T07:45:47;3.74;84.14
68098;DHT22;54886;47.036;15.466;2024-03-08T07:48:12;3.76;83.73
68098;DHT22;54886;47.036;15.466;2024-03-08T07:50:39;3.71;84.59
68098;DHT22;54886;47.036;15.466;2024-03-08T07:53:05;3.75;84.78
68098;DHT22;54886;47.036;15.466;2024-03-08T07:55:34;3.78;84.32
68098;DHT22;54886;47.036;15.466;2024-03-08T07:58:02;3.82;84.31
68098;DHT22;54886;47.036;15.466;2024-03-08T08:00:29;3.82;84.46
68098;DHT22;54886;47.036;15.466;2024-03-08T08:02:55;3.89;83.76
68098;DHT22;54886;47.036;15.466;2024-03-08T08:05:21;3.87;84.26
68098;DHT22;54886;47.036;15.466;2024-03-08T08:07:46;3.86;84.26
68098;DHT22;54886;47.036;15.466;2024-03-08T08:10:16;3.93;84.26
68098;DHT22;54886;47.036;15.466;2024-03-08T08:12:49;3.93;84.11
68098;DHT22;54886;47.036;15.466;2024-03-08T08:15:14;3.99;84.35
68098;DHT22;54886;47.036;15.466;2024-03-08T08:17:41;3.97;84.27
68098;DHT22;54886;47.036;15.466;2024-03-08T08:20:08;4.03;84.18
68098;DHT22;54886;47.036;15.466;2024-03-08T08:22:33;4.06;83.75
68098;DHT22;54886;47.036;15.466;2024-03-08T08:24:58;4.11;84.01
68098;DHT22;54886;47.036;15.466;2024-03-08T08:27:24;4.14;83.66
68098;DHT22;54886;47.036;15.466;2024-03-08T08:29:51;4.17;83.60
68098;DHT22;54886;47.036;15.466;2024-03-08T08:32:16;4.20;83.52
68098;DHT22;54886;47.036;15.466;2024-03-08T08:34:44;4.20;83.37
68098;DHT22;54886;47.036;15.466;2024-03-08T08:37:09;4.24;83.41
68098;DHT22;54886;47.036;15.466;2024-03-08T08:39:35;4.25;83.67
68098;DHT22;54886;47.036;15.466;2024-03-08T08:42:00;4.27;83.57
68098;DHT22;54886;47.036;15.466;2024-03-08T08:44:28;4.36;83.94
68098;DHT22;54886;47.036;15.466;2024-03-08T08:46:53;4.38;83.07
68098;DHT22;54886;47.036;15.466;2024-03-08T08:49:19;4.40;82.78
68098;DHT22;54886;47.036;15.466;2024-03-08T08:51:51;4.44;82.80
68098;DHT22;54886;47.036;15.466;2024-03-08T08:54:17;4.45;83.52
68098;DHT22;54886;47.036;15.466;2024-03-08T08:56:43;4.47;83.18
68098;DHT22;54886;47.036;15.466;2024-03-08T08:59:13;4.44;83.44
68098;DHT22;54886;47.036;15.466;2024-03-08T09:01:44;4.45;83.67
68098;DHT22;54886;47.036;15.466;2024-03-08T09:04:12;4.52;83.48
68098;DHT22;54886;47.036;15.466;2024-03-08T09:06:37;4.58;83.04
68098;DHT22;54886;47.036;15.466;2024-03-08T09:09:03;4.62;82.91
68098;DHT22;54886;47.036;15.466;2024-03-08T09:11:30;4.64;82.76
68098;DHT22;54886;47.036;15.466;2024-03-08T09:13:56;4.71;82.13
68098;DHT22;54886;47.036;15.466;2024-03-08T09:16:21;4.68;82.05
68098;DHT22;54886;47.036;15.466;2024-03-08T09:18:46;4.75;81.85
68098;DHT22;54886;47.036;15.466;2024-03-08T09:21:13;4.77;82.30
68098;DHT22;54886;47.036;15.466;2024-03-08T09:23:39;4.82;82.19
68098;DHT22;54886;47.036;15.466;2024-03-08T09:26:05;4.87;81.93
68098;DHT22;54886;47.036;15.466;2024-03-08T09:28:34;4.90;81.36
68098;DHT22;54886;47.036;15.466;2024-03-08T09:31:00;4.92;81.11
68098;DHT22;54886;47.036;15.466;2024-03-08T09:33:26;4.93;81.31
68098;DHT22;54886;47.036;15.466;2024-03-08T09:35:54;4.97;80.85
68098;DHT22;54886;47.036;15.466;2024-03-08T09:38:19;5.00;81.28
68098;DHT22;54886;47.036;15.466;2024-03-08T09:40:45;5.04;81.47
68098;DHT22;54886;47.036;15.466;2024-03-08T09:43:11;5.09;80.83
68098;DHT22;54886;47.036;15.466;2024-03-08T09:45:40;5.10;81.30
68098;DHT22;54886;47.036;15.466;2024-03-08T09:48:12;5.19;81.10
68098;DHT22;54886;47.036;15.466;2024-03-08T09:50:41;5.23;80.25
68098;DHT22;54886;47.036;15.466;2024-03-08T09:53:08;5.27;79.52
68098;DHT22;54886;47.036;15.466;2024-03-08T09:55:37;5.34;79.93
68098;DHT22;54886;47.036;15.466;2024-03-08T09:58:05;5.37;79.56
68098;DHT22;54886;47.036;15.466;2024-03-08T10:01:02;5.42;79.19
68098;DHT22;54886;47.036;15.466;2024-03-08T10:03:30;5.45;78.86
68098;DHT22;54886;47.036;15.466;2024-03-08T10:05:59;5.51;78.82
68098;DHT22;54886;47.036;15.466;2024-03-08T10:08:30;5.58;79.22
68098;DHT22;54886;47.036;15.466;2024-03-08T10:10:56;5.62;78.61
68098;DHT22;54886;47.036;15.466;2024-03-08T10:13:24;5.69;78.46
68098;DHT22;54886;47.036;15.466;2024-03-08T10:15:52;5.75;77.60
68098;DHT22;54886;47.036;15.466;2024-03-08T10:18:17;5.80;77.39
68098;DHT22;54886;47.036;15.466;2024-03-08T10:20:43;5.85;75.79
68098;DHT22;54886;47.036;15.466;2024-03-08T10:23:09;5.93;75.94
68098;DHT22;54886;47.036;15.466;2024-03-08T10:25:35;5.94;75.19
68098;DHT22;54886;47.036;15.466;2024-03-08T10:28:03;5.94;74.56
68098;DHT22;54886;47.036;15.466;2024-03-08T10:30:29;5.96;74.69
68098;DHT22;54886;47.036;15.466;2024-03-08T10:32:55;5.97;75.38
68098;DHT22;54886;47.036;15.466;2024-03-08T10:35:20;6.00;74.95
68098;DHT22;54886;47.036;15.466;2024-03-08T10:37:48;6.03;74.59
68098;DHT22;54886;47.036;15.466;2024-03-08T10:40:19;6.07;75.30
68098;DHT22;54886;47.036;15.466;2024-03-08T10:45:31;6.06;73.71
68098;DHT22;54886;47.036;15.466;2024-03-08T10:50:41;6.18;73.53
68098;DHT22;54886;47.036;15.466;2024-03-08T10:53:11;6.16;71.33
68098;DHT22;54886;47.036;15.466;2024-03-08T10:55:40;6.22;72.94
68098;DHT22;54886;47.036;15.466;2024-03-08T10:58:06;6.27;72.18
68098;DHT22;54886;47.036;15.466;2024-03-08T11:00:34;6.35;71.65
68098;DHT22;54886;47.036;15.466;2024-03-08T11:03:00;6.41;70.94
68098;DHT22;54886;47.036;15.466;2024-03-08T11:10:47;6.62;68.70
68098;DHT22;54886;47.036;15.466;2024-03-08T11:18:58;6.42;68.85
68098;DHT22;54886;47.036;15.466;2024-03-08T11:21:25;6.46;69.78
68098;DHT22;54886;47.036;15.466;2024-03-08T11:24:09;6.56;69.45
68098;DHT22;54886;47.036;15.466;2024-03-08T11:26:37;6.55;68.79
68098;DHT22;54886;47.036;15.466;2024-03-08T11:34:35;6.58;68.58
68098;DHT22;54886;47.036;15.466;2024-03-08T11:37:00;6.65;68.88
68098;DHT22;54886;47.036;15.466;2024-03-08T11:39:26;6.69;68.65
68098;DHT22;54886;47.036;15.466;2024-03-08T11:41:53;6.75;68.73
68098;DHT22;54886;47.036;15.466;2024-03-08T11:44:20;6.86;68.81
68098;DHT22;54886;47.036;15.466;2024-03-08T11:46:46;6.83;67.91
68098;DHT22;54886;47.036;15.466;2024-03-08T11:49:14;6.82;67.02
68098;DHT22;54886;47.036;15.466;2024-03-08T11:51:40;6.87;67.53
68098;DHT22;54886;47.036;15.466;2024-03-08T11:54:11;6.97;67.44
68098;DHT22;54886;47.036;15.466;2024-03-08T11:56:38;6.99;68.06
68098;DHT22;54886;47.036;15.466;2024-03-08T11:59:03;7.01;67.50
68098;DHT22;54886;47.036;15.466;2024-03-08T12:01:30;6.96;68.41
68098;DHT22;54886;47.036;15.466;2024-03-08T12:03:57;6.97;68.35
68098;DHT22;54886;47.036;15.466;2024-03-08T12:06:24;6.97;67.38
68098;DHT22;54886;47.036;15.466;2024-03-08T12:08:50;7.03;67.56
68098;DHT22;54886;47.036;15.466;2024-03-08T12:11:20;7.04;67.22
68098;DHT22;54886;47.036;15.466;2024-03-08T12:13:49;7.07;67.59
68098;DHT22;54886;47.036;15.466;2024-03-08T12:16:17;7.13;66.90
68098;DHT22;54886;47.036;15.466;2024-03-08T12:18:51;7.08;66.85
68098;DHT22;54886;47.036;15.466;2024-03-08T12:21:17;7.10;67.23
68098;DHT22;54886;47.036;15.466;2024-03-08T12:23:46;7.13;67.55
68098;DHT22;54886;47.036;15.466;2024-03-08T12:28:40;7.17;67.66
68098;DHT22;54886;47.036;15.466;2024-03-08T12:31:11;7.22;68.94
68098;DHT22;54886;47.036;15.466;2024-03-08T12:33:52;7.22;68.24
68098;DHT22;54886;47.036;15.466;2024-03-08T12:36:19;7.21;67.28
68098;DHT22;54886;47.036;15.466;2024-03-08T12:38:48;7.21;67.90
68098;DHT22;54886;47.036;15.466;2024-03-08T12:41:18;7.24;67.70
68098;DHT22;54886;47.036;15.466;2024-03-08T12:43:44;7.25;68.04
68098;DHT22;54886;47.036;15.466;2024-03-08T12:46:16;7.34;67.50
68098;DHT22;54886;47.036;15.466;2024-03-08T12:48:43;7.49;67.97
68098;DHT22;54886;47.036;15.466;2024-03-08T12:51:13;7.58;68.21
68098;DHT22;54886;47.036;15.466;2024-03-08T12:53:38;7.63;66.92
68098;DHT22;54886;47.036;15.466;2024-03-08T12:56:06;7.63;66.34
68098;DHT22;54886;47.036;15.466;2024-03-08T12:58:34;7.70;67.38
68098;DHT22;54886;47.036;15.466;2024-03-08T13:01:02;7.69;66.81
68098;DHT22;54886;47.036;15.466;2024-03-08T13:03:30;7.66;66.61
68098;DHT22;54886;47.036;15.466;2024-03-08T13:05:56;7.61;64.99
68098;DHT22;54886;47.036;15.466;2024-03-08T13:08:22;7.58;66.36
68098;DHT22;54886;47.036;15.466;2024-03-08T13:10:50;7.62;67.23
68098;DHT22;54886;47.036;15.466;2024-03-08T13:13:16;7.58;66.63
68098;DHT22;54886;47.036;15.466;2024-03-08T13:15:42;7.56;66.48
68098;DHT22;54886;47.036;15.466;2024-03-08T13:18:08;7.68;66.43
68098;DHT22;54886;47.036;15.466;2024-03-08T13:20:34;7.65;66.18
68098;DHT22;54886;47.036;15.466;2024-03-08T13:23:02;7.63;67.23
68098;DHT22;54886;47.036;15.466;2024-03-08T13:25:27;7.66;66.46
68098;DHT22;54886;47.036;15.466;2024-03-08T13:27:53;7.68;66.71
68098;DHT22;54886;47.036;15.466;2024-03-08T13:30:21;7.69;67.41
68098;DHT22;54886;47.036;15.466;2024-03-08T13:32:51;7.70;67.46
68098;DHT22;54886;47.036;15.466;2024-03-08T13:35:18;7.68;67.28
68098;DHT22;54886;47.036;15.466;2024-03-08T13:37:49;7.62;65.82
68098;DHT22;54886;47.036;15.466;2024-03-08T13:40:15;7.62;66.69
68098;DHT22;54886;47.036;15.466;2024-03-08T13:42:44;7.66;67.22
68098;DHT22;54886;47.036;15.466;2024-03-08T13:45:10;7.65;67.51
68098;DHT22;54886;47.036;15.466;2024-03-08T13:47:39;7.62;66.26
68098;DHT22;54886;47.036;15.466;2024-03-08T13:50:07;7.66;67.05
68098;DHT22;54886;47.036;15.466;2024-03-08T13:52:33;7.63;66.81
68098;DHT22;54886;47.036;15.466;2024-03-08T13:55:00;7.61;67.28
68098;DHT22;54886;47.036;15.466;2024-03-08T13:57:25;7.59;67.66
68098;DHT22;54886;47.036;15.466;2024-03-08T13:59:52;7.62;66.28
68098;DHT22;54886;47.036;15.466;2024-03-08T14:02:18;7.58;66.93
68098;DHT22;54886;47.036;15.466;2024-03-08T14:04:43;7.63;67.52
68098;DHT22;54886;47.036;15.466;2024-03-08T14:07:09;7.63;67.59
68098;DHT22;54886;47.036;15.466;2024-03-08T14:09:37;7.62;67.40
68098;DHT22;54886;47.036;15.466;2024-03-08T14:12:08;7.59;67.85
68098;DHT22;54886;47.036;15.466;2024-03-08T14:14:33;7.65;67.51
68098;DHT22;54886;47.036;15.466;2024-03-08T14:17:02;7.66;67.91
68098;DHT22;54886;47.036;15.466;2024-03-08T14:19:28;7.68;66.56
68098;DHT22;54886;47.036;15.466;2024-03-08T14:21:53;7.66;67.35
68098;DHT22;54886;47.036;15.466;2024-03-08T14:24:19;7.66;67.73
68098;DHT22;54886;47.036;15.466;2024-03-08T14:26:45;7.69;67.32
68098;DHT22;54886;47.036;15.466;2024-03-08T14:29:14;7.69;67.67
68098;DHT22;54886;47.036;15.466;2024-03-08T14:31:39;7.70;67.43
68098;DHT22;54886;47.036;15.466;2024-03-08T14:34:06;7.70;68.08
68098;DHT22;54886;47.036;15.466;2024-03-08T14:36:32;7.73;67.88
68098;DHT22;54886;47.036;15.466;2024-03-08T14:38:59;7.70;67.91
68098;DHT22;54886;47.036;15.466;2024-03-08T14:41:24;7.70;67.53
68098;DHT22;54886;47.036;15.466;2024-03-08T14:43:50;7.65;67.07
68098;DHT22;54886;47.036;15.466;2024-03-08T14:46:18;7.62;67.25
68098;DHT22;54886;47.036;15.466;2024-03-08T14:48:49;7.59;67.23
68098;DHT22;54886;47.036;15.466;2024-03-08T14:51:16;7.65;67.99
68098;DHT22;54886;47.036;15.466;2024-03-08T14:53:45;7.63;67.64
68098;DHT22;54886;47.036;15.466;2024-03-08T14:56:13;7.63;68.31
68098;DHT22;54886;47.036;15.466;2024-03-08T14:58:45;7.66;68.31
68098;DHT22;54886;47.036;15.466;2024-03-08T15:01:12;7.65;67.95
68098;DHT22;54886;47.036;15.466;2024-03-08T15:03:39;7.61;67.59
68098;DHT22;54886;47.036;15.466;2024-03-08T15:06:05;7.63;67.29
68098;DHT22;54886;47.036;15.466;2024-03-08T15:08:38;7.63;66.88
68098;DHT22;54886;47.036;15.466;2024-03-08T15:11:05;7.61;67.01
68098;DHT22;54886;47.036;15.466;2024-03-08T15:13:34;7.63;66.85
68098;DHT22;54886;47.036;15.466;2024-03-08T15:16:10;7.65;67.56
68098;DHT22;54886;47.036;15.466;2024-03-08T15:18:42;7.66;67.73
68098;DHT22;54886;47.036;15.466;2024-03-08T15:21:12;7.66;67.35
68098;DHT22;54886;47.036;15.466;2024-03-08T15:23:37;7.66;67.58
68098;DHT22;54886;47.036;15.466;2024-03-08T15:26:08;7.68;67.31
68098;DHT22;54886;47.036;15.466;2024-03-08T15:28:33;7.61;67.43
68098;DHT22;54886;47.036;15.466;2024-03-08T15:31:06;7.56;67.09
68098;DHT22;54886;47.036;15.466;2024-03-08T15:33:35;7.55;67.71
68098;DHT22;54886;47.036;15.466;2024-03-08T15:36:13;7.56;67.56
68098;DHT22;54886;47.036;15.466;2024-03-08T15:38:41;7.52;68.07
68098;DHT22;54886;47.036;15.466;2024-03-08T15:41:08;7.54;68.57
68098;DHT22;54886;47.036;15.466;2024-03-08T15:43:38;7.54;68.37
68098;DHT22;54886;47.036;15.466;2024-03-08T15:46:05;7.55;68.39
68098;DHT22;54886;47.036;15.466;2024-03-08T15:48:34;7.58;68.03
68098;DHT22;54886;47.036;15.466;2024-03-08T15:51:03;7.52;68.34
68098;DHT22;54886;47.036;15.466;2024-03-08T15:53:30;7.52;68.59